createdAt,value
2019-04-30T00:03:35.236Z,83.30
2019-04-30T00:08:39.516Z,84.50
2019-04-30T00:13:45.827Z,90.30
2019-04-30T00:18:59.917Z,91.10
2019-04-30T00:23:56.233Z,88.10
2019-04-30T00:28:59.344Z,88.00
2019-04-30T00:34:05.041Z,86.20
2019-04-30T00:39:13.506Z,87.30
2019-04-30T00:44:15.343Z,86.50
2019-04-30T00:49:23.389Z,88.10
2019-04-30T00:54:27.965Z,88.20
2019-04-30T00:59:31.422Z,86.90
2019-04-30T01:04:42.016Z,85.70
2019-04-30T01:09:49.733Z,85.90
2019-04-30T01:14:52.522Z,86.40
2019-04-30T01:19:56.847Z,85.50
2019-04-30T01:25:08.013Z,85.90
2019-04-30T01:30:08.715Z,87.90
2019-04-30T01:35:13.498Z,84.80
2019-04-30T01:40:20.725Z,85.90
2019-04-30T01:45:30.113Z,87.40
2019-04-30T01:50:33.738Z,87.60
2019-04-30T01:55:44.897Z,88.10
2019-04-30T02:00:54.963Z,89.10
2019-04-30T02:05:59.638Z,88.80
2019-04-30T02:11:03.786Z,91.30
2019-04-30T02:16:08.670Z,90.20
2019-04-30T02:21:13.157Z,90.40
2019-04-30T02:26:18.685Z,89.90
2019-04-30T02:31:23.216Z,88.30
2019-04-30T02:36:52.861Z,87.80
2019-04-30T02:41:59.765Z,87.80
2019-04-30T02:47:03.823Z,87.60
2019-04-30T02:52:09.231Z,87.20
2019-04-30T02:57:14.004Z,88.80
2019-04-30T03:02:19.552Z,87.90
2019-04-30T03:07:23.747Z,87.80
2019-04-30T03:12:30.625Z,89.60
2019-04-30T03:17:50.364Z,90.00
2019-04-30T03:22:53.774Z,90.50
2019-04-30T03:28:00.339Z,90.00
2019-04-30T03:33:03.633Z,90.10
2019-04-30T03:38:09.714Z,90.40
2019-04-30T03:43:14.176Z,90.50
2019-04-30T03:48:20.023Z,90.70
2019-04-30T03:53:24.762Z,90.00
2019-04-30T03:58:29.336Z,91.10
2019-04-30T04:03:36.982Z,91.10
2019-04-30T04:08:49.770Z,91.40
2019-04-30T04:13:54.073Z,90.80
2019-04-30T04:18:59.462Z,90.40
2019-04-30T04:24:04.480Z,90.00
2019-04-30T04:29:09.404Z,89.00
2019-04-30T04:34:14.279Z,90.50
2019-04-30T04:39:20.219Z,90.00
2019-04-30T04:44:24.618Z,90.90
2019-04-30T04:49:30.567Z,89.30
2019-04-30T04:54:34.925Z,88.00
2019-04-30T04:59:42.621Z,89.90
2019-04-30T05:04:45.626Z,91.70
2019-04-30T05:09:49.892Z,90.40
2019-04-30T05:14:54.167Z,90.50
2019-04-30T05:19:59.520Z,90.60
2019-04-30T05:25:03.658Z,88.90
2019-04-30T05:30:09.753Z,87.90
2019-04-30T05:35:14.486Z,89.10
2019-04-30T05:40:19.008Z,89.50
2019-04-30T05:45:23.204Z,87.70
2019-04-30T05:50:29.466Z,86.60
2019-04-30T05:55:33.107Z,86.90
2019-04-30T06:00:39.761Z,89.40
2019-04-30T06:05:43.526Z,86.50
2019-04-30T06:10:59.758Z,86.90
2019-04-30T06:16:18.710Z,86.50
2019-04-30T06:21:22.821Z,86.70
2019-04-30T06:26:29.488Z,86.20
2019-04-30T06:31:37.300Z,86.20
2019-04-30T06:36:51.095Z,84.90
2019-04-30T06:41:45.845Z,82.10
2019-04-30T06:46:50.743Z,79.80
2019-04-30T06:51:54.784Z,79.10
2019-04-30T06:56:59.632Z,77.50
2019-04-30T07:02:04.131Z,77.10
2019-04-30T07:07:09.152Z,76.00
2019-04-30T07:12:27.233Z,75.10
2019-04-30T07:17:25.957Z,75.60
2019-04-30T07:22:40.212Z,75.90
2019-04-30T07:27:35.903Z,75.10
2019-04-30T07:32:40.090Z,75.80
2019-04-30T07:37:44.132Z,74.40
2019-04-30T07:42:50.401Z,73.20
2019-04-30T07:47:54.690Z,72.50
2019-04-30T07:53:05.563Z,70.60
2019-04-30T07:58:06.671Z,68.60
2019-04-30T08:03:30.181Z,71.50
2019-04-30T08:08:34.611Z,61.80
2019-04-30T08:13:40.765Z,58.20
2019-04-30T08:18:45.256Z,56.70
2019-04-30T08:23:49.588Z,54.90
2019-04-30T08:28:54.329Z,55.90
2019-04-30T08:34:00.472Z,50.40
2019-04-30T08:39:05.857Z,51.50
2019-04-30T08:44:10.019Z,49.60
2019-04-30T08:49:14.590Z,51.90
2019-04-30T08:54:20.243Z,49.90
2019-04-30T08:59:24.652Z,48.20
2019-04-30T09:04:30.597Z,47.00
2019-04-30T09:09:36.332Z,46.20
2019-04-30T09:14:40.983Z,48.60
2019-04-30T09:19:43.976Z,48.20
2019-04-30T09:24:50.213Z,47.60
2019-04-30T09:29:54.549Z,47.40
2019-04-30T09:35:00.328Z,46.70
2019-04-30T09:40:15.336Z,46.40
2019-04-30T09:45:12.675Z,47.00
2019-04-30T09:50:18.744Z,47.30
2019-04-30T09:55:23.402Z,46.20
2019-04-30T10:00:29.622Z,48.30
2019-04-30T10:05:33.777Z,47.50
2019-04-30T10:10:46.175Z,46.10
2019-04-30T10:16:03.364Z,46.40
2019-04-30T10:21:09.115Z,45.70
2019-04-30T10:26:14.437Z,47.10
2019-04-30T10:32:35.929Z,45.70
2019-04-30T10:36:46.575Z,46.40
2019-04-30T10:41:46.483Z,46.10
2019-04-30T10:46:50.586Z,43.30
2019-04-30T10:52:00.810Z,41.00
2019-04-30T10:57:03.887Z,46.80
2019-04-30T11:02:09.070Z,42.90
2019-04-30T11:07:15.242Z,46.50
2019-04-30T11:12:19.421Z,45.10
2019-04-30T11:17:23.681Z,44.70
2019-04-30T11:22:28.007Z,47.20
2019-04-30T11:27:32.716Z,47.50
2019-04-30T11:32:59.556Z,47.50
2019-04-30T11:38:04.391Z,47.40
2019-04-30T11:43:08.719Z,46.30
2019-04-30T11:48:13.112Z,46.70
2019-04-30T11:53:25.308Z,49.50
2019-04-30T11:58:24.385Z,47.10
2019-04-30T12:03:30.274Z,49.20
2019-04-30T12:08:39.226Z,47.30
2019-04-30T12:13:45.276Z,48.80
2019-04-30T12:18:49.526Z,47.20
2019-04-30T12:23:53.451Z,48.80
2019-04-30T12:28:57.795Z,50.50
2019-04-30T12:34:02.201Z,51.70
2019-04-30T12:39:07.439Z,49.60
2019-04-30T12:44:11.534Z,50.70
2019-04-30T12:49:18.877Z,52.10
2019-04-30T12:54:54.473Z,53.50
2019-04-30T13:00:01.638Z,50.00
2019-04-30T13:05:08.812Z,51.30
2019-04-30T13:10:13.890Z,53.50
2019-04-30T13:15:19.897Z,54.00
2019-04-30T13:20:24.297Z,53.80
2019-04-30T13:25:35.148Z,52.50
2019-04-30T13:30:33.595Z,47.70
2019-04-30T13:35:38.905Z,49.10
2019-04-30T13:40:50.870Z,49.30
2019-04-30T13:46:04.952Z,50.80
2019-04-30T13:51:09.712Z,51.20
2019-04-30T13:56:13.269Z,47.50
2019-04-30T14:01:18.867Z,49.90
2019-04-30T14:06:25.597Z,49.30
2019-04-30T14:11:30.166Z,49.40
2019-04-30T14:16:33.385Z,49.40
2019-04-30T14:21:39.509Z,50.50
2019-04-30T14:26:45.992Z,50.00
2019-04-30T14:31:51.853Z,51.10
2019-04-30T14:36:59.196Z,51.40
2019-04-30T14:42:03.848Z,51.80
2019-04-30T14:47:30.115Z,49.30
2019-04-30T14:52:40.390Z,51.60
2019-04-30T14:58:09.654Z,49.30
2019-04-30T15:03:19.367Z,47.00
2019-04-30T15:08:25.432Z,44.70
2019-04-30T15:13:29.924Z,45.60
2019-04-30T15:18:38.778Z,44.20
2019-04-30T15:24:00.917Z,47.30
2019-04-30T15:29:11.810Z,50.60
2019-04-30T15:34:11.328Z,49.40
2019-04-30T15:39:33.826Z,49.20
2019-04-30T15:44:45.441Z,48.10
2019-04-30T15:49:49.188Z,49.00
2019-04-30T15:54:59.267Z,50.30
2019-04-30T16:00:18.669Z,51.20
2019-04-30T16:12:12.526Z,49.60
2019-04-30T16:17:25.081Z,51.70
2019-04-30T16:22:29.884Z,52.60
2019-04-30T16:27:37.286Z,53.60
2019-04-30T16:32:42.932Z,52.90
2019-04-30T16:37:47.868Z,53.50
2019-04-30T16:42:53.709Z,53.40
2019-04-30T16:48:12.032Z,53.00
2019-04-30T16:53:18.947Z,53.20
2019-04-30T16:58:23.009Z,54.30
2019-04-30T17:03:38.843Z,54.20
2019-04-30T17:09:05.190Z,54.20
2019-04-30T17:19:40.613Z,54.70
2019-04-30T17:24:50.374Z,55.90
2019-04-30T17:30:03.929Z,56.30
2019-04-30T17:35:09.179Z,56.60
2019-04-30T17:40:38.964Z,57.30
2019-04-30T17:45:45.633Z,58.00
2019-04-30T17:50:49.798Z,58.20
2019-04-30T17:55:59.181Z,58.80
2019-04-30T18:02:05.941Z,59.20
2019-04-30T18:07:12.651Z,59.40
2019-04-30T18:12:16.766Z,59.80
2019-04-30T18:17:22.040Z,60.60
2019-04-30T18:23:09.137Z,61.50
2019-04-30T18:28:14.009Z,61.80
2019-04-30T18:33:21.845Z,62.00
2019-04-30T18:38:25.999Z,62.50
2019-04-30T18:43:33.059Z,63.30
2019-04-30T18:48:37.130Z,65.00
2019-04-30T18:53:41.414Z,63.90
2019-04-30T18:58:45.590Z,64.60
2019-04-30T19:03:49.703Z,65.20
2019-04-30T19:09:19.703Z,65.90
2019-04-30T19:14:42.852Z,66.30
2019-04-30T19:20:08.544Z,66.80
2019-04-30T19:25:14.551Z,67.00
2019-04-30T19:30:24.340Z,67.30
2019-04-30T19:35:28.472Z,67.70
2019-04-30T19:40:33.573Z,67.90
2019-04-30T19:45:38.021Z,68.80
2019-04-30T19:50:42.217Z,68.60
2019-04-30T19:55:46.571Z,69.10
2019-04-30T20:00:54.289Z,68.80
2019-04-30T20:06:01.215Z,68.80
2019-04-30T20:11:09.453Z,68.90
2019-04-30T20:16:13.798Z,69.40
2019-04-30T20:21:27.948Z,69.60
2019-04-30T20:26:28.683Z,69.70
2019-04-30T20:31:33.831Z,70.00
2019-04-30T20:36:38.935Z,70.00
2019-04-30T20:41:44.261Z,70.50
2019-04-30T20:46:49.180Z,71.50
2019-04-30T20:51:55.882Z,72.00
2019-04-30T20:56:59.161Z,71.60
2019-04-30T21:02:03.279Z,72.80
2019-04-30T21:07:09.437Z,72.80
2019-04-30T21:12:14.037Z,73.50
2019-04-30T21:17:18.074Z,75.40
2019-04-30T21:22:23.016Z,74.30
2019-04-30T21:27:28.250Z,74.10
2019-04-30T21:32:50.587Z,74.20
2019-04-30T21:37:56.559Z,74.90
2019-04-30T21:43:00.871Z,74.70
2019-04-30T21:48:04.973Z,75.10
2019-04-30T21:53:09.952Z,76.10
2019-04-30T21:58:14.219Z,76.10
2019-04-30T22:03:19.713Z,76.00
2019-04-30T22:08:24.571Z,76.10
2019-04-30T22:13:29.488Z,77.80
2019-04-30T22:18:33.795Z,76.30
2019-04-30T22:23:38.102Z,76.70
2019-04-30T22:28:42.345Z,76.90
2019-04-30T22:33:46.416Z,78.60
2019-04-30T22:39:09.224Z,77.70
2019-04-30T22:44:14.142Z,77.50
2019-04-30T22:49:18.249Z,78.00
2019-04-30T22:54:22.687Z,79.70
2019-04-30T22:59:26.862Z,78.70
2019-04-30T23:04:39.882Z,79.60
2019-04-30T23:09:44.041Z,81.10
2019-04-30T23:14:48.441Z,80.10
2019-04-30T23:19:52.738Z,81.00
2019-04-30T23:24:56.732Z,78.80
2019-04-30T23:30:03.462Z,79.40
2019-04-30T23:35:07.037Z,79.80
2019-04-30T23:40:24.857Z,80.70
2019-04-30T23:45:28.911Z,80.30
2019-04-30T23:50:32.934Z,83.50
2019-04-30T23:55:38.065Z,81.60
